sensor_id;sensor_type;location;lat;lon;timestamp;temperature;humidity
31661;DHT22;18267;52.234;7.444;2022-12-29T00:01:37;10.30;99.90
31661;DHT22;18267;52.234;7.444;2022-12-29T00:04:03;10.30;99.90
31661;DHT22;18267;52.234;7.444;2022-12-29T00:06:29;10.30;99.90
31661;DHT22;18267;52.234;7.444;2022-12-29T00:08:55;10.40;99.90
31661;DHT22;18267;52.234;7.444;2022-12-29T00:11:23;10.40;99.90
31661;DHT22;18267;52.234;7.444;2022-12-29T00:13:49;10.40;99.90
31661;DHT22;18267;52.234;7.444;2022-12-29T00:16:34;10.40;99.90
31661;DHT22;18267;52.234;7.444;2022-12-29T00:19:00;10.50;99.90
31661;DHT22;18267;52.234;7.444;2022-12-29T00:21:26;10.50;99.90
31661;DHT22;18267;52.234;7.444;2022-12-29T00:24:21;10.50;99.90
31661;DHT22;18267;52.234;7.444;2022-12-29T00:26:58;10.60;99.90
31661;DHT22;18267;52.234;7.444;2022-12-29T00:29:48;10.60;99.90
31661;DHT22;18267;52.234;7.444;2022-12-29T00:32:33;10.60;99.90
31661;DHT22;18267;52.234;7.444;2022-12-29T00:35:35;10.60;99.90
31661;DHT22;18267;52.234;7.444;2022-12-29T00:38:05;10.70;99.90
31661;DHT22;18267;52.234;7.444;2022-12-29T00:40:49;10.70;99.90
31661;DHT22;18267;52.234;7.444;2022-12-29T00:43:33;10.70;99.90
31661;DHT22;18267;52.234;7.444;2022-12-29T00:46:18;10.80;99.90
31661;DHT22;18267;52.234;7.444;2022-12-29T00:48:43;10.80;99.90
31661;DHT22;18267;52.234;7.444;2022-12-29T00:51:27;10.70;99.90
31661;DHT22;18267;52.234;7.444;2022-12-29T00:53:53;10.70;99.90
31661;DHT22;18267;52.234;7.444;2022-12-29T00:56:18;10.70;99.90
31661;DHT22;18267;52.234;7.444;2022-12-29T00:58:44;10.70;99.90
31661;DHT22;18267;52.234;7.444;2022-12-29T01:01:09;10.70;99.90
31661;DHT22;18267;52.234;7.444;2022-12-29T01:03:36;10.70;99.90
31661;DHT22;18267;52.234;7.444;2022-12-29T01:06:09;10.70;99.90
31661;DHT22;18267;52.234;7.444;2022-12-29T01:08:35;10.70;99.90
31661;DHT22;18267;52.234;7.444;2022-12-29T01:11:08;10.70;99.90
31661;DHT22;18267;52.234;7.444;2022-12-29T01:13:34;10.70;99.90
31661;DHT22;18267;52.234;7.444;2022-12-29T01:16:01;10.60;99.90
31661;DHT22;18267;52.234;7.444;2022-12-29T01:18:27;10.70;99.90
31661;DHT22;18267;52.234;7.444;2022-12-29T01:21:00;10.70;99.90
31661;DHT22;18267;52.234;7.444;2022-12-29T01:23:27;10.70;99.90
31661;DHT22;18267;52.234;7.444;2022-12-29T01:25:53;10.70;99.90
31661;DHT22;18267;52.234;7.444;2022-12-29T01:28:18;10.70;99.90
31661;DHT22;18267;52.234;7.444;2022-12-29T01:30:44;10.70;99.90
31661;DHT22;18267;52.234;7.444;2022-12-29T01:33:09;10.80;99.90
31661;DHT22;18267;52.234;7.444;2022-12-29T01:35:35;10.70;99.90
31661;DHT22;18267;52.234;7.444;2022-12-29T01:38:00;10.70;99.90
31661;DHT22;18267;52.234;7.444;2022-12-29T01:40:26;10.70;99.90
31661;DHT22;18267;52.234;7.444;2022-12-29T01:42:51;10.80;99.90
31661;DHT22;18267;52.234;7.444;2022-12-29T01:45:18;10.80;99.90
31661;DHT22;18267;52.234;7.444;2022-12-29T01:47:48;10.80;99.90
31661;DHT22;18267;52.234;7.444;2022-12-29T01:50:29;10.80;99.90
31661;DHT22;18267;52.234;7.444;2022-12-29T01:53:01;10.80;99.90
31661;DHT22;18267;52.234;7.444;2022-12-29T01:55:31;10.80;99.90
31661;DHT22;18267;52.234;7.444;2022-12-29T01:58:00;10.80;99.90
31661;DHT22;18267;52.234;7.444;2022-12-29T02:00:28;10.80;99.90
31661;DHT22;18267;52.234;7.444;2022-12-29T02:02:54;10.80;99.90
31661;DHT22;18267;52.234;7.444;2022-12-29T02:05:42;10.80;99.90
31661;DHT22;18267;52.234;7.444;2022-12-29T02:08:11;10.70;99.90
31661;DHT22;18267;52.234;7.444;2022-12-29T02:10:39;10.80;99.90
31661;DHT22;18267;52.234;7.444;2022-12-29T02:13:06;10.70;99.90
31661;DHT22;18267;52.234;7.444;2022-12-29T02:22:00;10.70;99.90
31661;DHT22;18267;52.234;7.444;2022-12-29T02:25:09;10.80;99.90
31661;DHT22;18267;52.234;7.444;2022-12-29T02:28:03;10.70;99.90
31661;DHT22;18267;52.234;7.444;2022-12-29T02:33:40;10.70;99.90
31661;DHT22;18267;52.234;7.444;2022-12-29T02:44:27;10.90;99.90
31661;DHT22;18267;52.234;7.444;2022-12-29T02:47:00;10.90;99.90
31661;DHT22;18267;52.234;7.444;2022-12-29T02:49:36;10.90;99.90
31661;DHT22;18267;52.234;7.444;2022-12-29T02:52:28;10.90;99.90
31661;DHT22;18267;52.234;7.444;2022-12-29T02:54:55;10.90;99.90
31661;DHT22;18267;52.234;7.444;2022-12-29T02:59:51;10.90;99.90
31661;DHT22;18267;52.234;7.444;2022-12-29T03:05:26;11.00;99.90
31661;DHT22;18267;52.234;7.444;2022-12-29T03:07:59;11.00;99.90
31661;DHT22;18267;52.234;7.444;2022-12-29T03:10:59;10.90;99.90
31661;DHT22;18267;52.234;7.444;2022-12-29T03:13:45;11.00;99.90
31661;DHT22;18267;52.234;7.444;2022-12-29T03:16:45;11.00;99.90
31661;DHT22;18267;52.234;7.444;2022-12-29T03:19:22;11.00;99.90
31661;DHT22;18267;52.234;7.444;2022-12-29T03:21:56;11.00;99.90
31661;DHT22;18267;52.234;7.444;2022-12-29T03:24:45;11.00;99.90
31661;DHT22;18267;52.234;7.444;2022-12-29T03:27:17;11.00;99.90
31661;DHT22;18267;52.234;7.444;2022-12-29T03:29:48;11.00;99.90
31661;DHT22;18267;52.234;7.444;2022-12-29T03:32:20;11.00;99.90
31661;DHT22;18267;52.234;7.444;2022-12-29T03:34:48;11.00;99.90
31661;DHT22;18267;52.234;7.444;2022-12-29T03:37:17;11.00;99.90
31661;DHT22;18267;52.234;7.444;2022-12-29T03:39:43;11.00;99.90
31661;DHT22;18267;52.234;7.444;2022-12-29T03:42:15;11.00;99.90
31661;DHT22;18267;52.234;7.444;2022-12-29T03:44:43;11.10;99.90
31661;DHT22;18267;52.234;7.444;2022-12-29T03:47:13;11.10;99.90
31661;DHT22;18267;52.234;7.444;2022-12-29T03:49:39;11.10;99.90
31661;DHT22;18267;52.234;7.444;2022-12-29T03:52:05;11.20;99.90
31661;DHT22;18267;52.234;7.444;2022-12-29T03:54:31;11.10;99.90
31661;DHT22;18267;52.234;7.444;2022-12-29T03:56:57;11.10;99.90
31661;DHT22;18267;52.234;7.444;2022-12-29T03:59:23;11.10;99.90
31661;DHT22;18267;52.234;7.444;2022-12-29T04:01:48;11.10;99.90
31661;DHT22;18267;52.234;7.444;2022-12-29T04:04:14;11.10;99.90
31661;DHT22;18267;52.234;7.444;2022-12-29T04:06:40;11.10;99.90
31661;DHT22;18267;52.234;7.444;2022-12-29T04:09:05;11.10;99.90
31661;DHT22;18267;52.234;7.444;2022-12-29T04:11:31;11.20;99.90
31661;DHT22;18267;52.234;7.444;2022-12-29T04:13:57;11.20;99.90
31661;DHT22;18267;52.234;7.444;2022-12-29T04:16:22;11.20;99.90
31661;DHT22;18267;52.234;7.444;2022-12-29T04:18:48;11.20;99.90
31661;DHT22;18267;52.234;7.444;2022-12-29T04:21:13;11.20;99.90
31661;DHT22;18267;52.234;7.444;2022-12-29T04:23:39;11.20;99.90
31661;DHT22;18267;52.234;7.444;2022-12-29T04:26:05;11.20;99.90
31661;DHT22;18267;52.234;7.444;2022-12-29T04:28:35;11.20;99.90
31661;DHT22;18267;52.234;7.444;2022-12-29T04:31:00;11.30;99.90
31661;DHT22;18267;52.234;7.444;2022-12-29T04:33:26;11.30;99.90
31661;DHT22;18267;52.234;7.444;2022-12-29T04:35:52;11.20;99.90
31661;DHT22;18267;52.234;7.444;2022-12-29T04:38:19;11.20;99.90
31661;DHT22;18267;52.234;7.444;2022-12-29T04:40:46;11.20;99.90
31661;DHT22;18267;52.234;7.444;2022-12-29T04:43:12;11.20;99.90
31661;DHT22;18267;52.234;7.444;2022-12-29T04:45:42;11.20;99.90
31661;DHT22;18267;52.234;7.444;2022-12-29T04:48:08;11.20;99.90
31661;DHT22;18267;52.234;7.444;2022-12-29T04:50:33;11.20;99.90
31661;DHT22;18267;52.234;7.444;2022-12-29T04:52:59;11.30;99.90
31661;DHT22;18267;52.234;7.444;2022-12-29T04:55:25;11.30;99.90
31661;DHT22;18267;52.234;7.444;2022-12-29T04:57:50;11.30;99.90
31661;DHT22;18267;52.234;7.444;2022-12-29T05:00:16;11.20;99.90
31661;DHT22;18267;52.234;7.444;2022-12-29T05:02:42;11.10;99.90
31661;DHT22;18267;52.234;7.444;2022-12-29T05:05:07;11.00;99.90
31661;DHT22;18267;52.234;7.444;2022-12-29T05:07:33;11.00;99.90
31661;DHT22;18267;52.234;7.444;2022-12-29T05:09:59;10.90;99.90
31661;DHT22;18267;52.234;7.444;2022-12-29T05:12:25;10.80;99.90
31661;DHT22;18267;52.234;7.444;2022-12-29T05:14:50;10.80;99.90
31661;DHT22;18267;52.234;7.444;2022-12-29T05:17:16;10.80;99.90
31661;DHT22;18267;52.234;7.444;2022-12-29T05:19:41;10.80;99.90
31661;DHT22;18267;52.234;7.444;2022-12-29T05:22:07;10.80;99.90
31661;DHT22;18267;52.234;7.444;2022-12-29T05:24:33;10.70;99.90
31661;DHT22;18267;52.234;7.444;2022-12-29T05:26:58;10.60;99.90
31661;DHT22;18267;52.234;7.444;2022-12-29T05:29:24;10.70;99.90
31661;DHT22;18267;52.234;7.444;2022-12-29T05:31:49;10.60;99.90
31661;DHT22;18267;52.234;7.444;2022-12-29T05:34:15;10.70;99.90
31661;DHT22;18267;52.234;7.444;2022-12-29T05:36:41;10.70;99.90
31661;DHT22;18267;52.234;7.444;2022-12-29T05:39:06;10.70;99.90
31661;DHT22;18267;52.234;7.444;2022-12-29T05:41:33;10.60;99.90
31661;DHT22;18267;52.234;7.444;2022-12-29T05:43:59;10.60;99.90
31661;DHT22;18267;52.234;7.444;2022-12-29T05:46:24;10.60;99.90
31661;DHT22;18267;52.234;7.444;2022-12-29T05:48:51;10.60;99.90
31661;DHT22;18267;52.234;7.444;2022-12-29T05:51:16;10.70;99.90
31661;DHT22;18267;52.234;7.444;2022-12-29T05:53:42;10.60;99.90
31661;DHT22;18267;52.234;7.444;2022-12-29T05:56:07;10.60;99.90
31661;DHT22;18267;52.234;7.444;2022-12-29T05:58:33;10.50;99.90
31661;DHT22;18267;52.234;7.444;2022-12-29T06:00:58;10.40;99.90
31661;DHT22;18267;52.234;7.444;2022-12-29T06:03:24;10.40;99.90
31661;DHT22;18267;52.234;7.444;2022-12-29T06:05:49;10.50;99.90
31661;DHT22;18267;52.234;7.444;2022-12-29T06:08:15;10.50;99.90
31661;DHT22;18267;52.234;7.444;2022-12-29T06:10:41;10.40;99.90
31661;DHT22;18267;52.234;7.444;2022-12-29T06:13:06;10.50;99.90
31661;DHT22;18267;52.234;7.444;2022-12-29T06:15:33;10.40;99.90
31661;DHT22;18267;52.234;7.444;2022-12-29T06:17:58;10.30;99.90
31661;DHT22;18267;52.234;7.444;2022-12-29T06:20:24;10.40;99.90
31661;DHT22;18267;52.234;7.444;2022-12-29T06:22:50;10.30;99.90
31661;DHT22;18267;52.234;7.444;2022-12-29T06:25:16;10.30;99.90
31661;DHT22;18267;52.234;7.444;2022-12-29T06:27:42;10.30;99.90
31661;DHT22;18267;52.234;7.444;2022-12-29T06:30:08;10.30;99.90
31661;DHT22;18267;52.234;7.444;2022-12-29T06:32:34;10.40;99.90
31661;DHT22;18267;52.234;7.444;2022-12-29T06:35:00;10.30;99.90
31661;DHT22;18267;52.234;7.444;2022-12-29T06:37:26;10.40;99.90
31661;DHT22;18267;52.234;7.444;2022-12-29T06:39:52;10.40;99.90
31661;DHT22;18267;52.234;7.444;2022-12-29T06:42:17;10.50;99.90
31661;DHT22;18267;52.234;7.444;2022-12-29T06:44:43;10.50;99.90
31661;DHT22;18267;52.234;7.444;2022-12-29T06:47:08;10.50;99.90
31661;DHT22;18267;52.234;7.444;2022-12-29T06:49:34;10.40;99.90
31661;DHT22;18267;52.234;7.444;2022-12-29T06:51:59;10.40;99.90
31661;DHT22;18267;52.234;7.444;2022-12-29T06:54:26;10.40;99.90
31661;DHT22;18267;52.234;7.444;2022-12-29T06:56:52;10.50;99.90
31661;DHT22;18267;52.234;7.444;2022-12-29T06:59:17;10.50;99.90
31661;DHT22;18267;52.234;7.444;2022-12-29T07:01:43;10.40;99.90
31661;DHT22;18267;52.234;7.444;2022-12-29T07:04:09;10.30;99.90
31661;DHT22;18267;52.234;7.444;2022-12-29T07:06:34;10.30;99.90
31661;DHT22;18267;52.234;7.444;2022-12-29T07:09:00;10.30;99.90
31661;DHT22;18267;52.234;7.444;2022-12-29T07:11:25;10.20;99.90
31661;DHT22;18267;52.234;7.444;2022-12-29T07:13:51;10.10;99.90
31661;DHT22;18267;52.234;7.444;2022-12-29T07:16:17;10.10;99.90
31661;DHT22;18267;52.234;7.444;2022-12-29T07:18:43;10.10;99.90
31661;DHT22;18267;52.234;7.444;2022-12-29T07:21:08;10.10;99.90
31661;DHT22;18267;52.234;7.444;2022-12-29T07:23:34;10.10;99.90
31661;DHT22;18267;52.234;7.444;2022-12-29T07:26:05;10.10;99.90
31661;DHT22;18267;52.234;7.444;2022-12-29T07:28:31;10.10;99.90
31661;DHT22;18267;52.234;7.444;2022-12-29T07:31:00;10.00;99.90
31661;DHT22;18267;52.234;7.444;2022-12-29T07:33:28;10.00;99.90
31661;DHT22;18267;52.234;7.444;2022-12-29T07:35:53;9.90;99.90
31661;DHT22;18267;52.234;7.444;2022-12-29T07:38:19;9.90;99.90
31661;DHT22;18267;52.234;7.444;2022-12-29T07:40:44;9.90;99.90
31661;DHT22;18267;52.234;7.444;2022-12-29T07:43:10;9.90;99.90
31661;DHT22;18267;52.234;7.444;2022-12-29T07:45:36;9.90;99.90
31661;DHT22;18267;52.234;7.444;2022-12-29T07:48:01;9.90;99.90
31661;DHT22;18267;52.234;7.444;2022-12-29T07:50:28;9.90;99.90
31661;DHT22;18267;52.234;7.444;2022-12-29T07:52:53;9.80;99.90
31661;DHT22;18267;52.234;7.444;2022-12-29T07:55:19;9.90;99.90
31661;DHT22;18267;52.234;7.444;2022-12-29T07:57:44;10.00;99.90
31661;DHT22;18267;52.234;7.444;2022-12-29T08:00:10;10.00;99.90
31661;DHT22;18267;52.234;7.444;2022-12-29T08:02:36;10.10;99.90
31661;DHT22;18267;52.234;7.444;2022-12-29T08:05:02;10.10;99.90
31661;DHT22;18267;52.234;7.444;2022-12-29T08:07:27;10.10;99.90
31661;DHT22;18267;52.234;7.444;2022-12-29T08:09:53;10.10;99.90
31661;DHT22;18267;52.234;7.444;2022-12-29T08:12:19;10.20;99.90
31661;DHT22;18267;52.234;7.444;2022-12-29T08:14:44;10.20;99.90
31661;DHT22;18267;52.234;7.444;2022-12-29T08:17:10;10.20;99.90
31661;DHT22;18267;52.234;7.444;2022-12-29T08:19:36;10.30;99.90
31661;DHT22;18267;52.234;7.444;2022-12-29T08:22:02;10.30;99.90
31661;DHT22;18267;52.234;7.444;2022-12-29T08:24:28;10.30;99.90
31661;DHT22;18267;52.234;7.444;2022-12-29T08:26:53;10.30;99.90
31661;DHT22;18267;52.234;7.444;2022-12-29T08:29:19;10.40;99.90
31661;DHT22;18267;52.234;7.444;2022-12-29T08:31:46;10.50;99.90
31661;DHT22;18267;52.234;7.444;2022-12-29T08:34:12;10.50;99.90
31661;DHT22;18267;52.234;7.444;2022-12-29T08:36:38;10.60;99.90
31661;DHT22;18267;52.234;7.444;2022-12-29T08:39:03;10.60;99.90
31661;DHT22;18267;52.234;7.444;2022-12-29T08:41:29;10.60;99.90
31661;DHT22;18267;52.234;7.444;2022-12-29T08:43:54;10.70;99.90
31661;DHT22;18267;52.234;7.444;2022-12-29T08:46:20;10.70;99.90
31661;DHT22;18267;52.234;7.444;2022-12-29T08:48:46;10.70;99.90
31661;DHT22;18267;52.234;7.444;2022-12-29T08:51:11;10.70;99.90
31661;DHT22;18267;52.234;7.444;2022-12-29T08:53:37;10.70;99.90
31661;DHT22;18267;52.234;7.444;2022-12-29T08:56:03;10.70;99.90
31661;DHT22;18267;52.234;7.444;2022-12-29T08:58:29;10.70;99.90
31661;DHT22;18267;52.234;7.444;2022-12-29T09:00:56;10.70;99.90
31661;DHT22;18267;52.234;7.444;2022-12-29T09:03:22;10.70;99.90
31661;DHT22;18267;52.234;7.444;2022-12-29T09:05:52;10.80;99.90
31661;DHT22;18267;52.234;7.444;2022-12-29T09:08:19;10.80;99.90
31661;DHT22;18267;52.234;7.444;2022-12-29T09:10:44;10.80;99.90
31661;DHT22;18267;52.234;7.444;2022-12-29T09:13:12;10.80;99.90
31661;DHT22;18267;52.234;7.444;2022-12-29T09:15:37;10.70;99.90
31661;DHT22;18267;52.234;7.444;2022-12-29T09:18:03;10.70;99.90
31661;DHT22;18267;52.234;7.444;2022-12-29T09:20:28;10.70;99.90
31661;DHT22;18267;52.234;7.444;2022-12-29T09:22:54;10.70;99.90
31661;DHT22;18267;52.234;7.444;2022-12-29T09:25:20;10.80;99.90
31661;DHT22;18267;52.234;7.444;2022-12-29T09:27:48;10.80;99.90
31661;DHT22;18267;52.234;7.444;2022-12-29T09:30:14;10.70;99.90
31661;DHT22;18267;52.234;7.444;2022-12-29T09:32:40;10.70;99.90
31661;DHT22;18267;52.234;7.444;2022-12-29T09:35:06;10.80;99.90
31661;DHT22;18267;52.234;7.444;2022-12-29T09:37:32;10.80;99.90
31661;DHT22;18267;52.234;7.444;2022-12-29T09:39:57;10.90;99.90
31661;DHT22;18267;52.234;7.444;2022-12-29T09:42:27;10.90;99.90
31661;DHT22;18267;52.234;7.444;2022-12-29T09:45:12;10.90;99.90
31661;DHT22;18267;52.234;7.444;2022-12-29T09:47:41;10.90;99.90
31661;DHT22;18267;52.234;7.444;2022-12-29T09:50:14;10.90;99.90
31661;DHT22;18267;52.234;7.444;2022-12-29T09:53:10;10.90;99.90
31661;DHT22;18267;52.234;7.444;2022-12-29T09:55:44;10.90;99.90
31661;DHT22;18267;52.234;7.444;2022-12-29T09:58:20;10.90;99.90
31661;DHT22;18267;52.234;7.444;2022-12-29T10:01:04;10.90;99.90
31661;DHT22;18267;52.234;7.444;2022-12-29T10:03:57;10.90;99.90
31661;DHT22;18267;52.234;7.444;2022-12-29T10:06:27;10.80;99.90
31661;DHT22;18267;52.234;7.444;2022-12-29T10:14:43;10.80;99.90
31661;DHT22;18267;52.234;7.444;2022-12-29T10:20:17;10.90;99.90
31661;DHT22;18267;52.234;7.444;2022-12-29T10:23:11;11.00;99.90
31661;DHT22;18267;52.234;7.444;2022-12-29T10:25:42;11.20;99.90
31661;DHT22;18267;52.234;7.444;2022-12-29T10:28:21;11.20;99.90
31661;DHT22;18267;52.234;7.444;2022-12-29T10:30:48;11.30;99.90
31661;DHT22;18267;52.234;7.444;2022-12-29T10:33:34;11.30;99.90
31661;DHT22;18267;52.234;7.444;2022-12-29T10:36:15;11.20;99.90
31661;DHT22;18267;52.234;7.444;2022-12-29T10:41:41;11.10;99.90
31661;DHT22;18267;52.234;7.444;2022-12-29T10:44:11;11.10;99.90
31661;DHT22;18267;52.234;7.444;2022-12-29T10:46:38;11.10;99.90
31661;DHT22;18267;52.234;7.444;2022-12-29T10:49:06;11.00;99.90
31661;DHT22;18267;52.234;7.444;2022-12-29T10:51:40;11.10;99.90
31661;DHT22;18267;52.234;7.444;2022-12-29T10:56:49;11.00;99.90
31661;DHT22;18267;52.234;7.444;2022-12-29T10:59:25;11.10;99.90
31661;DHT22;18267;52.234;7.444;2022-12-29T11:04:48;11.20;99.90
31661;DHT22;18267;52.234;7.444;2022-12-29T11:07:19;11.20;99.90
31661;DHT22;18267;52.234;7.444;2022-12-29T11:09:46;11.30;99.90
31661;DHT22;18267;52.234;7.444;2022-12-29T11:12:24;11.20;99.90
31661;DHT22;18267;52.234;7.444;2022-12-29T11:15:13;11.30;99.90
31661;DHT22;18267;52.234;7.444;2022-12-29T11:17:49;11.30;99.90
31661;DHT22;18267;52.234;7.444;2022-12-29T11:20:28;11.30;99.90
31661;DHT22;18267;52.234;7.444;2022-12-29T11:22:54;11.40;99.90
31661;DHT22;18267;52.234;7.444;2022-12-29T11:25:20;11.30;99.90
31661;DHT22;18267;52.234;7.444;2022-12-29T11:28:14;11.20;99.90
31661;DHT22;18267;52.234;7.444;2022-12-29T11:30:40;11.20;99.90
31661;DHT22;18267;52.234;7.444;2022-12-29T11:33:06;11.20;99.90
31661;DHT22;18267;52.234;7.444;2022-12-29T11:35:41;11.20;99.90
31661;DHT22;18267;52.234;7.444;2022-12-29T11:38:23;11.20;99.90
31661;DHT22;18267;52.234;7.444;2022-12-29T11:40:50;11.20;99.90
31661;DHT22;18267;52.234;7.444;2022-12-29T11:43:38;11.20;99.90
31661;DHT22;18267;52.234;7.444;2022-12-29T11:46:05;11.30;99.90
31661;DHT22;18267;52.234;7.444;2022-12-29T11:48:41;11.30;99.90
31661;DHT22;18267;52.234;7.444;2022-12-29T11:51:08;11.30;99.90
31661;DHT22;18267;52.234;7.444;2022-12-29T11:53:45;11.20;99.90
31661;DHT22;18267;52.234;7.444;2022-12-29T11:56:14;11.30;99.90
31661;DHT22;18267;52.234;7.444;2022-12-29T11:58:41;11.20;99.90
31661;DHT22;18267;52.234;7.444;2022-12-29T12:03:43;11.10;99.90
31661;DHT22;18267;52.234;7.444;2022-12-29T12:06:12;11.10;99.90
31661;DHT22;18267;52.234;7.444;2022-12-29T12:08:59;11.20;99.90
31661;DHT22;18267;52.234;7.444;2022-12-29T12:11:28;11.20;99.90
31661;DHT22;18267;52.234;7.444;2022-12-29T12:14:06;11.10;99.90
31661;DHT22;18267;52.234;7.444;2022-12-29T12:16:40;11.10;99.90
31661;DHT22;18267;52.234;7.444;2022-12-29T12:19:35;11.20;99.90
31661;DHT22;18267;52.234;7.444;2022-12-29T12:22:13;11.10;99.90
31661;DHT22;18267;52.234;7.444;2022-12-29T12:30:19;11.10;99.90
31661;DHT22;18267;52.234;7.444;2022-12-29T12:39:06;11.20;99.90
31661;DHT22;18267;52.234;7.444;2022-12-29T12:52:44;11.20;99.90
31661;DHT22;18267;52.234;7.444;2022-12-29T12:55:57;11.20;99.90
31661;DHT22;18267;52.234;7.444;2022-12-29T12:58:39;11.20;99.90
31661;DHT22;18267;52.234;7.444;2022-12-29T13:17:26;11.30;99.90
31661;DHT22;18267;52.234;7.444;2022-12-29T13:22:47;11.20;99.90
31661;DHT22;18267;52.234;7.444;2022-12-29T13:25:27;11.30;99.90
31661;DHT22;18267;52.234;7.444;2022-12-29T13:30:38;11.20;99.90
31661;DHT22;18267;52.234;7.444;2022-12-29T13:36:05;11.10;99.90
31661;DHT22;18267;52.234;7.444;2022-12-29T13:38:42;11.10;99.90
31661;DHT22;18267;52.234;7.444;2022-12-29T13:41:25;11.10;99.90
31661;DHT22;18267;52.234;7.444;2022-12-29T13:43:54;11.10;99.90
31661;DHT22;18267;52.234;7.444;2022-12-29T13:46:26;11.10;99.90
31661;DHT22;18267;52.234;7.444;2022-12-29T13:48:59;11.30;99.90
31661;DHT22;18267;52.234;7.444;2022-12-29T13:51:28;11.30;99.90
31661;DHT22;18267;52.234;7.444;2022-12-29T13:57:02;11.30;99.90
31661;DHT22;18267;52.234;7.444;2022-12-29T13:59:39;11.30;99.90
31661;DHT22;18267;52.234;7.444;2022-12-29T14:02:27;11.20;99.90
31661;DHT22;18267;52.234;7.444;2022-12-29T14:07:25;11.10;99.90
31661;DHT22;18267;52.234;7.444;2022-12-29T14:09:53;11.10;99.90
31661;DHT22;18267;52.234;7.444;2022-12-29T14:14:46;11.00;99.90
31661;DHT22;18267;52.234;7.444;2022-12-29T14:17:12;11.00;99.90
31661;DHT22;18267;52.234;7.444;2022-12-29T14:19:43;11.00;99.90
31661;DHT22;18267;52.234;7.444;2022-12-29T14:22:10;11.00;99.90
31661;DHT22;18267;52.234;7.444;2022-12-29T14:24:44;11.00;99.90
31661;DHT22;18267;52.234;7.444;2022-12-29T14:34:53;11.10;99.90
31661;DHT22;18267;52.234;7.444;2022-12-29T14:37:36;11.00;99.90
31661;DHT22;18267;52.234;7.444;2022-12-29T14:40:24;11.00;99.90
31661;DHT22;18267;52.234;7.444;2022-12-29T14:42:55;10.90;99.90
31661;DHT22;18267;52.234;7.444;2022-12-29T14:47:48;10.90;99.90
31661;DHT22;18267;52.234;7.444;2022-12-29T14:57:42;10.90;99.90
31661;DHT22;18267;52.234;7.444;2022-12-29T15:00:24;10.80;99.90
31661;DHT22;18267;52.234;7.444;2022-12-29T15:05:44;10.90;99.90
31661;DHT22;18267;52.234;7.444;2022-12-29T15:08:13;10.90;99.90
31661;DHT22;18267;52.234;7.444;2022-12-29T15:11:01;10.80;99.90
31661;DHT22;18267;52.234;7.444;2022-12-29T15:13:37;10.80;99.90
31661;DHT22;18267;52.234;7.444;2022-12-29T15:16:04;10.80;99.90
31661;DHT22;18267;52.234;7.444;2022-12-29T15:18:32;10.70;99.90
31661;DHT22;18267;52.234;7.444;2022-12-29T15:21:05;10.70;99.90
31661;DHT22;18267;52.234;7.444;2022-12-29T15:23:34;10.60;99.90
31661;DHT22;18267;52.234;7.444;2022-12-29T15:26:02;10.60;99.90
31661;DHT22;18267;52.234;7.444;2022-12-29T15:28:43;10.60;99.90
31661;DHT22;18267;52.234;7.444;2022-12-29T15:31:24;10.60;99.90
31661;DHT22;18267;52.234;7.444;2022-12-29T15:33:52;10.60;99.90
31661;DHT22;18267;52.234;7.444;2022-12-29T15:36:23;10.60;99.90
31661;DHT22;18267;52.234;7.444;2022-12-29T15:38:50;10.70;99.90
31661;DHT22;18267;52.234;7.444;2022-12-29T15:41:50;10.70;99.90
31661;DHT22;18267;52.234;7.444;2022-12-29T15:44:40;10.70;99.90
31661;DHT22;18267;52.234;7.444;2022-12-29T15:47:16;10.70;99.90
31661;DHT22;18267;52.234;7.444;2022-12-29T15:49:44;10.60;99.90
31661;DHT22;18267;52.234;7.444;2022-12-29T15:52:10;10.50;99.90
31661;DHT22;18267;52.234;7.444;2022-12-29T15:54:37;10.40;99.90
31661;DHT22;18267;52.234;7.444;2022-12-29T15:57:03;10.40;99.90
31661;DHT22;18267;52.234;7.444;2022-12-29T15:59:31;10.30;99.90
31661;DHT22;18267;52.234;7.444;2022-12-29T16:01:59;10.40;99.90
31661;DHT22;18267;52.234;7.444;2022-12-29T16:04:32;10.30;99.90
31661;DHT22;18267;52.234;7.444;2022-12-29T16:07:00;10.40;99.90
31661;DHT22;18267;52.234;7.444;2022-12-29T16:09:41;10.40;99.90
31661;DHT22;18267;52.234;7.444;2022-12-29T16:12:23;10.40;99.90
31661;DHT22;18267;52.234;7.444;2022-12-29T16:14:54;10.30;99.90
31661;DHT22;18267;52.234;7.444;2022-12-29T16:17:23;10.30;99.90
31661;DHT22;18267;52.234;7.444;2022-12-29T16:19:55;10.30;99.90
31661;DHT22;18267;52.234;7.444;2022-12-29T16:22:49;10.30;99.90
31661;DHT22;18267;52.234;7.444;2022-12-29T16:25:33;10.30;99.90
31661;DHT22;18267;52.234;7.444;2022-12-29T16:28:01;10.30;99.90
31661;DHT22;18267;52.234;7.444;2022-12-29T16:30:32;10.20;99.90
31661;DHT22;18267;52.234;7.444;2022-12-29T16:33:05;10.10;99.90
31661;DHT22;18267;52.234;7.444;2022-12-29T16:35:46;10.10;99.90
31661;DHT22;18267;52.234;7.444;2022-12-29T16:38:35;10.10;99.90
31661;DHT22;18267;52.234;7.444;2022-12-29T16:41:01;10.00;99.90
31661;DHT22;18267;52.234;7.444;2022-12-29T16:43:33;10.10;99.90
31661;DHT22;18267;52.234;7.444;2022-12-29T16:48:33;10.10;99.90
31661;DHT22;18267;52.234;7.444;2022-12-29T16:51:14;10.10;99.90
31661;DHT22;18267;52.234;7.444;2022-12-29T16:53:47;10.20;99.90
31661;DHT22;18267;52.234;7.444;2022-12-29T16:56:22;10.10;99.90
31661;DHT22;18267;52.234;7.444;2022-12-29T16:58:52;10.10;99.90
31661;DHT22;18267;52.234;7.444;2022-12-29T17:01:22;10.10;99.90
31661;DHT22;18267;52.234;7.444;2022-12-29T17:03:59;10.10;99.90
31661;DHT22;18267;52.234;7.444;2022-12-29T17:06:26;10.10;99.90
31661;DHT22;18267;52.234;7.444;2022-12-29T17:08:52;10.10;99.90
31661;DHT22;18267;52.234;7.444;2022-12-29T17:11:32;10.00;99.90
31661;DHT22;18267;52.234;7.444;2022-12-29T17:16:45;10.10;99.90
31661;DHT22;18267;52.234;7.444;2022-12-29T17:19:16;10.10;99.90
31661;DHT22;18267;52.234;7.444;2022-12-29T17:21:43;10.00;99.90
31661;DHT22;18267;52.234;7.444;2022-12-29T17:24:16;10.10;99.90
31661;DHT22;18267;52.234;7.444;2022-12-29T17:26:42;10.10;99.90
31661;DHT22;18267;52.234;7.444;2022-12-29T17:29:17;10.20;99.90
31661;DHT22;18267;52.234;7.444;2022-12-29T17:31:44;10.10;99.90
31661;DHT22;18267;52.234;7.444;2022-12-29T17:34:11;9.90;99.90
31661;DHT22;18267;52.234;7.444;2022-12-29T17:36:37;9.90;99.90
31661;DHT22;18267;52.234;7.444;2022-12-29T17:39:04;10.00;99.90
31661;DHT22;18267;52.234;7.444;2022-12-29T17:41:32;9.90;99.90
31661;DHT22;18267;52.234;7.444;2022-12-29T17:43:59;10.00;99.90
31661;DHT22;18267;52.234;7.444;2022-12-29T17:46:26;10.00;99.90
31661;DHT22;18267;52.234;7.444;2022-12-29T17:48:51;9.90;99.90
31661;DHT22;18267;52.234;7.444;2022-12-29T17:51:18;9.90;99.90
31661;DHT22;18267;52.234;7.444;2022-12-29T17:53:44;9.90;99.90
31661;DHT22;18267;52.234;7.444;2022-12-29T17:56:09;9.90;99.90
31661;DHT22;18267;52.234;7.444;2022-12-29T17:58:36;10.00;99.90